Miccosukee, Florida
Current Conditions -  °F | °C
As of 10:53 PM on Monday 20 Oct 2014 (Local Time) from KTLH Reporting Station
Few Clouds Few Clouds  
Wind Chill: 66°   Ceiling: Unl
Heat Index: 66°   Visibility: 10mi
Dew Point: 61°   Wind: 0mph
Humidity: 84%   Direction: NA
Pressure: 29.99"   Gusts: NA
Location:  30.59°N, 84.04°W
Report Text: KTLH 210253Z 00000KT 10SM FEW250 19/16 A2999 RMK AO2 SLP156 LAST AUGMENTED OBS T01890161 51008
Loading
Personal Weather Stations






























Interactive Weather Map New forecast layout! Learn more

10-Day Weather Forecast

Advertisements
Track Severe Weather on mobile